createdAt,value
2023-04-13T00:01:32.878Z,0.40
2023-04-13T00:04:37.522Z,0.40
2023-04-13T00:07:07.876Z,0.60
2023-04-13T00:09:39.827Z,0.40
2023-04-13T00:12:07.755Z,0.40
2023-04-13T00:14:35.810Z,0.50
2023-04-13T00:17:03.973Z,0.40
2023-04-13T00:19:33.335Z,0.50
2023-04-13T00:22:01.350Z,0.37
2023-04-13T00:24:29.274Z,0.43
2023-04-13T00:26:58.794Z,0.40
2023-04-13T00:29:27.738Z,0.50
2023-04-13T00:31:56.107Z,0.40
2023-04-13T00:34:24.724Z,0.47
2023-04-13T00:36:54.265Z,0.50
2023-04-13T00:39:23.278Z,0.40
2023-04-13T00:41:51.423Z,0.40
2023-04-13T00:44:21.664Z,0.40
2023-04-13T00:46:50.565Z,0.40
2023-04-13T00:49:19.113Z,0.40
2023-04-13T00:51:47.833Z,0.40
2023-04-13T00:54:18.141Z,0.47
2023-04-13T00:56:54.261Z,0.50
2023-04-13T00:59:28.413Z,0.40
2023-04-13T01:01:57.373Z,0.40
2023-04-13T01:04:25.781Z,0.40
2023-04-13T01:07:06.168Z,0.50
2023-04-13T01:09:56.703Z,0.40
2023-04-13T01:12:33.033Z,0.30
2023-04-13T01:15:11.319Z,0.37
2023-04-13T01:17:42.075Z,0.40
2023-04-13T01:20:12.755Z,0.40
2023-04-13T01:22:45.662Z,0.40
2023-04-13T01:25:32.129Z,0.37
2023-04-13T01:28:03.457Z,0.40
2023-04-13T01:30:32.350Z,0.40
2023-04-13T01:33:02.158Z,0.30
2023-04-13T01:35:30.968Z,0.40
2023-04-13T01:37:59.449Z,0.40
2023-04-13T01:41:22.677Z,0.40
2023-04-13T01:43:52.128Z,0.33
2023-04-13T01:46:27.068Z,0.40
2023-04-13T01:48:57.968Z,0.30
2023-04-13T01:51:31.379Z,0.50
2023-04-13T01:54:07.901Z,0.40
2023-04-13T01:57:33.575Z,0.40
2023-04-13T02:07:46.857Z,0.40
2023-04-13T02:10:57.279Z,0.40
2023-04-13T02:21:34.579Z,0.30
2023-04-13T02:25:14.612Z,0.30
2023-04-13T02:30:51.181Z,0.40
2023-04-13T02:33:19.257Z,0.40
2023-04-13T02:35:47.174Z,0.40
2023-04-13T02:38:17.781Z,0.40
2023-04-13T02:40:47.352Z,0.40
2023-04-13T02:43:18.322Z,0.30
2023-04-13T02:45:46.309Z,0.30
2023-04-13T02:48:14.430Z,0.40
2023-04-13T02:50:42.659Z,0.30
2023-04-13T02:53:10.594Z,0.37
2023-04-13T02:55:41.148Z,0.30
2023-04-13T02:58:10.025Z,0.30
2023-04-13T03:00:38.679Z,0.40
2023-04-13T03:03:08.465Z,0.30
2023-04-13T03:16:11.304Z,0.23
2023-04-13T03:18:39.422Z,0.30
2023-04-13T03:21:08.410Z,0.20
2023-04-13T03:27:15.276Z,0.30
2023-04-13T03:29:44.513Z,0.40
2023-04-13T03:32:18.416Z,0.37
2023-04-13T03:34:50.597Z,0.30
2023-04-13T03:41:14.026Z,0.30
2023-04-13T03:43:42.209Z,0.30
2023-04-13T03:46:53.630Z,0.30
2023-04-13T03:53:26.166Z,0.33
2023-04-13T03:55:54.133Z,0.40
2023-04-13T03:58:22.165Z,0.37
2023-04-13T04:00:50.145Z,0.30
2023-04-13T04:03:19.518Z,0.30
2023-04-13T04:05:47.553Z,0.30
2023-04-13T04:08:15.683Z,0.30
2023-04-13T04:10:43.772Z,0.33
2023-04-13T04:13:11.796Z,0.30
2023-04-13T04:15:39.785Z,0.30
2023-04-13T04:18:09.286Z,0.30
2023-04-13T04:20:38.770Z,0.37
2023-04-13T04:23:09.865Z,0.40
2023-04-13T04:25:38.140Z,0.40
2023-04-13T04:28:06.608Z,0.40
2023-04-13T04:30:37.198Z,0.40
2023-04-13T04:33:05.181Z,0.30
2023-04-13T04:35:36.211Z,0.30
2023-04-13T04:38:06.547Z,0.37
2023-04-13T04:40:35.797Z,0.40
2023-04-13T04:43:05.151Z,0.40
2023-04-13T04:46:03.171Z,0.40
2023-04-13T04:48:39.032Z,0.37
2023-04-13T04:51:36.059Z,0.30
2023-04-13T04:54:08.309Z,0.40
2023-04-13T04:56:36.268Z,0.30
2023-04-13T04:59:14.055Z,0.30
2023-04-13T05:01:43.306Z,0.30
2023-04-13T05:04:13.474Z,0.30
2023-04-13T05:06:41.741Z,0.40
2023-04-13T05:09:11.731Z,0.40
2023-04-13T05:11:45.588Z,0.40
2023-04-13T05:14:13.933Z,0.30
2023-04-13T05:16:41.826Z,0.30
2023-04-13T05:19:10.399Z,0.40
2023-04-13T05:21:38.419Z,0.37
2023-04-13T05:24:07.872Z,0.40
2023-04-13T05:26:41.188Z,0.40
2023-04-13T05:29:12.664Z,0.40
2023-04-13T05:31:40.538Z,0.30
2023-04-13T05:34:08.619Z,0.30
2023-04-13T05:36:36.897Z,0.33
2023-04-13T05:39:05.854Z,0.30
2023-04-13T05:41:34.041Z,0.37
2023-04-13T05:44:03.479Z,0.40
2023-04-13T05:46:31.496Z,0.30
2023-04-13T05:49:03.648Z,0.30
2023-04-13T05:51:34.081Z,0.30
2023-04-13T05:54:02.682Z,0.30
2023-04-13T05:56:32.067Z,0.30
2023-04-13T05:59:01.155Z,0.27
2023-04-13T06:01:31.956Z,0.20
2023-04-13T06:04:00.724Z,0.20
2023-04-13T06:06:30.248Z,0.20
2023-04-13T06:08:59.399Z,0.20
2023-04-13T06:11:28.084Z,0.30
2023-04-13T06:13:57.511Z,0.30
2023-04-13T06:16:28.672Z,0.20
2023-04-13T06:18:59.139Z,0.20
2023-04-13T06:21:28.674Z,0.30
2023-04-13T06:23:59.255Z,0.30
2023-04-13T06:26:30.346Z,0.30
2023-04-13T06:28:58.691Z,0.23
2023-04-13T06:31:28.497Z,0.30
2023-04-13T06:33:57.841Z,0.30
2023-04-13T06:36:31.696Z,0.30
2023-04-13T06:39:01.087Z,0.37
2023-04-13T06:41:30.331Z,0.20
2023-04-13T06:44:25.027Z,0.30
2023-04-13T06:46:54.311Z,0.30
2023-04-13T06:49:30.282Z,0.20
2023-04-13T06:51:58.252Z,0.30
2023-04-13T06:54:26.534Z,0.20
2023-04-13T06:56:55.111Z,0.30
2023-04-13T06:59:23.530Z,0.20
2023-04-13T07:01:53.456Z,0.20
2023-04-13T07:04:21.738Z,0.30
2023-04-13T07:06:51.865Z,0.20
2023-04-13T07:09:19.817Z,0.30
2023-04-13T07:11:47.680Z,0.20
2023-04-13T07:14:15.630Z,0.20
2023-04-13T07:16:43.588Z,0.20
2023-04-13T07:19:11.514Z,0.20
2023-04-13T07:21:39.663Z,0.20
2023-04-13T07:24:09.631Z,0.20
2023-04-13T07:26:37.666Z,0.27
2023-04-13T07:29:12.162Z,0.20
2023-04-13T07:31:40.108Z,0.20
2023-04-13T07:34:08.248Z,0.20
2023-04-13T07:36:36.499Z,0.20
2023-04-13T07:39:04.824Z,0.20
2023-04-13T07:41:34.206Z,0.20
2023-04-13T07:44:02.150Z,0.20
2023-04-13T07:46:30.364Z,0.20
2023-04-13T07:48:58.855Z,0.20
2023-04-13T07:51:27.071Z,0.30
2023-04-13T07:54:25.201Z,0.20
2023-04-13T07:56:58.401Z,0.20
2023-04-13T07:59:26.364Z,0.20
2023-04-13T08:01:54.446Z,0.30
2023-04-13T08:04:23.375Z,0.20
2023-04-13T08:06:52.375Z,0.20
2023-04-13T08:09:20.302Z,0.20
2023-04-13T08:11:51.026Z,0.30
2023-04-13T08:14:21.794Z,0.30
2023-04-13T08:16:49.780Z,0.20
2023-04-13T08:19:18.193Z,0.20
2023-04-13T08:21:46.600Z,0.20
2023-04-13T08:24:14.622Z,0.20
2023-04-13T08:26:42.929Z,0.20
2023-04-13T08:29:11.344Z,0.20
2023-04-13T08:31:41.380Z,0.20
2023-04-13T08:34:11.723Z,0.20
2023-04-13T08:36:52.745Z,0.20
2023-04-13T08:39:22.271Z,0.30
2023-04-13T08:41:50.715Z,0.30
2023-04-13T08:44:18.910Z,0.20
2023-04-13T08:46:51.949Z,0.20
2023-04-13T08:49:21.105Z,0.30
2023-04-13T08:51:50.118Z,0.20
2023-04-13T08:54:18.402Z,0.30
2023-04-13T08:56:47.793Z,0.20
2023-04-13T08:59:17.197Z,0.20
2023-04-13T09:01:48.944Z,0.30
2023-04-13T09:04:46.957Z,0.20
2023-04-13T09:07:27.812Z,0.30
2023-04-13T09:10:00.037Z,0.30
2023-04-13T09:12:51.395Z,0.20
2023-04-13T09:15:19.747Z,0.30
2023-04-13T09:17:52.531Z,0.20
2023-04-13T09:20:24.805Z,0.20
2023-04-13T09:22:54.692Z,0.23
2023-04-13T09:25:24.617Z,0.20
2023-04-13T09:27:59.251Z,0.20
2023-04-13T09:30:28.573Z,0.20
2023-04-13T09:33:06.352Z,0.20
2023-04-13T09:35:36.634Z,0.20
2023-04-13T09:38:06.174Z,0.20
2023-04-13T09:40:38.549Z,0.20
2023-04-13T09:43:08.116Z,0.20
2023-04-13T09:45:37.110Z,0.20
2023-04-13T09:48:06.978Z,0.27
2023-04-13T09:50:37.097Z,0.20
2023-04-13T09:53:06.524Z,0.20
2023-04-13T09:55:35.531Z,0.20
2023-04-13T09:58:22.560Z,0.20
2023-04-13T10:00:51.958Z,0.20
2023-04-13T10:03:23.819Z,0.20
2023-04-13T10:06:00.242Z,0.20
2023-04-13T10:11:02.413Z,0.20
2023-04-13T10:13:36.859Z,0.20
2023-04-13T10:16:30.505Z,0.20
2023-04-13T10:19:01.950Z,0.23
2023-04-13T10:21:35.711Z,0.20
2023-04-13T10:24:11.477Z,0.30
2023-04-13T10:26:43.973Z,0.20
2023-04-13T10:29:14.973Z,0.20
2023-04-13T10:31:47.877Z,0.20
2023-04-13T10:34:30.246Z,0.30
2023-04-13T10:37:04.254Z,0.20
2023-04-13T10:39:34.090Z,0.30
2023-04-13T10:42:03.783Z,0.30
2023-04-13T10:44:42.958Z,0.30
2023-04-13T10:47:11.323Z,0.30
2023-04-13T10:49:40.967Z,0.30
2023-04-13T10:52:11.567Z,0.30
2023-04-13T10:54:41.196Z,0.20
2023-04-13T10:57:11.244Z,0.20
2023-04-13T11:02:18.930Z,0.33
2023-04-13T11:04:50.145Z,0.20
2023-04-13T11:07:21.434Z,0.20
2023-04-13T11:09:53.523Z,0.20
2023-04-13T11:12:21.558Z,0.20
2023-04-13T11:14:50.717Z,0.20
2023-04-13T11:17:20.406Z,0.20
2023-04-13T11:19:50.551Z,0.30
2023-04-13T11:22:23.122Z,0.20
2023-04-13T11:24:54.258Z,0.20
2023-04-13T11:27:23.304Z,0.20
2023-04-13T11:30:01.644Z,0.20
2023-04-13T11:32:29.613Z,0.20
2023-04-13T11:35:07.013Z,0.30
2023-04-13T11:37:38.545Z,0.20
2023-04-13T11:40:13.000Z,0.20
2023-04-13T11:42:45.958Z,0.30
2023-04-13T11:45:15.836Z,0.30
2023-04-13T11:47:44.251Z,0.20
2023-04-13T11:50:14.910Z,0.20
2023-04-13T11:52:46.548Z,0.30
2023-04-13T11:55:23.283Z,0.20
2023-04-13T11:57:53.026Z,0.30
2023-04-13T12:00:27.038Z,0.30
2023-04-13T12:05:31.575Z,0.30
2023-04-13T12:08:05.405Z,0.20
2023-04-13T12:10:42.846Z,0.27
2023-04-13T12:13:35.402Z,0.20
2023-04-13T12:16:11.937Z,0.20
2023-04-13T12:18:47.349Z,0.20
2023-04-13T12:21:17.303Z,0.20
2023-04-13T12:23:54.652Z,0.20
2023-04-13T12:28:57.185Z,0.20
2023-04-13T12:31:25.730Z,0.30
2023-04-13T12:33:54.763Z,0.30
2023-04-13T12:36:23.881Z,0.20
2023-04-13T12:38:54.111Z,0.30
2023-04-13T12:41:23.116Z,0.30
2023-04-13T12:43:51.102Z,0.20
2023-04-13T12:46:20.341Z,0.20
2023-04-13T12:48:48.644Z,0.20
2023-04-13T12:51:16.596Z,0.20
2023-04-13T12:53:45.586Z,0.20
2023-04-13T12:56:18.691Z,0.20
2023-04-13T12:58:46.731Z,0.20
2023-04-13T13:01:15.410Z,0.20
2023-04-13T13:03:45.160Z,0.30
2023-04-13T13:06:13.365Z,0.30
2023-04-13T13:08:41.228Z,0.20
2023-04-13T13:11:16.882Z,0.20
2023-04-13T13:13:47.725Z,0.20
2023-04-13T13:16:21.968Z,0.20
2023-04-13T13:19:49.850Z,0.30
2023-04-13T13:22:43.279Z,0.20
2023-04-13T13:25:15.173Z,0.30
2023-04-13T13:30:15.641Z,0.20
2023-04-13T13:32:45.085Z,0.20
2023-04-13T13:35:14.074Z,0.20
2023-04-13T13:37:42.398Z,0.20
2023-04-13T13:40:13.321Z,0.20
2023-04-13T13:42:50.638Z,0.20
2023-04-13T13:45:21.271Z,0.20
2023-04-13T13:47:52.833Z,0.20
2023-04-13T13:50:21.640Z,0.20
2023-04-13T13:53:03.020Z,0.20
2023-04-13T13:55:32.855Z,0.20
2023-04-13T13:58:02.437Z,0.20
2023-04-13T14:00:32.996Z,0.20
2023-04-13T14:03:03.103Z,0.20
2023-04-13T14:05:32.220Z,0.20
2023-04-13T14:08:01.439Z,0.20
2023-04-13T14:10:29.383Z,0.30
2023-04-13T14:12:59.001Z,0.20
2023-04-13T14:15:27.228Z,0.20
2023-04-13T14:18:09.764Z,0.20
2023-04-13T14:20:40.138Z,0.20
2023-04-13T14:23:10.036Z,0.20
2023-04-13T14:25:41.242Z,0.20
2023-04-13T14:28:11.111Z,0.20
2023-04-13T14:30:40.517Z,0.20
2023-04-13T14:33:10.014Z,0.27
2023-04-13T14:35:38.823Z,0.20
2023-04-13T14:38:08.291Z,0.20
2023-04-13T14:40:38.498Z,0.30
2023-04-13T14:43:13.435Z,0.20
2023-04-13T14:45:41.460Z,0.20
2023-04-13T14:48:10.734Z,0.20
2023-04-13T14:50:39.328Z,0.20
2023-04-13T14:53:07.754Z,0.20
2023-04-13T14:55:37.891Z,0.20
2023-04-13T14:58:06.230Z,0.20
2023-04-13T15:00:41.366Z,0.20
2023-04-13T15:03:13.598Z,0.20
2023-04-13T15:05:43.535Z,0.20
2023-04-13T15:08:14.232Z,0.20
2023-04-13T15:10:43.023Z,0.20
2023-04-13T15:13:10.948Z,0.20
2023-04-13T15:15:40.484Z,0.20
2023-04-13T15:18:10.730Z,0.20
2023-04-13T15:20:41.375Z,0.20
2023-04-13T15:23:09.393Z,0.20
2023-04-13T15:25:38.964Z,0.20
2023-04-13T15:28:06.971Z,0.20
2023-04-13T15:30:35.607Z,0.30
2023-04-13T15:33:04.231Z,0.20
2023-04-13T15:35:36.140Z,0.20
2023-04-13T15:38:04.400Z,0.20
2023-04-13T15:40:33.903Z,0.20
2023-04-13T15:43:02.042Z,0.20
2023-04-13T15:45:35.905Z,0.20
2023-04-13T15:48:11.892Z,0.20
2023-04-13T15:50:58.648Z,0.20
2023-04-13T15:53:27.546Z,0.20
2023-04-13T15:55:55.862Z,0.20
2023-04-13T15:58:24.134Z,0.20
2023-04-13T16:00:58.901Z,0.20
2023-04-13T16:03:32.135Z,0.20
2023-04-13T16:06:20.061Z,0.20
2023-04-13T16:08:51.536Z,0.20
2023-04-13T16:11:22.642Z,0.20
2023-04-13T16:13:58.107Z,0.20
2023-04-13T16:16:29.993Z,0.20
2023-04-13T16:18:59.086Z,0.20
2023-04-13T16:21:30.371Z,0.20
2023-04-13T16:23:59.574Z,0.20
2023-04-13T16:26:30.846Z,0.20
2023-04-13T16:29:06.729Z,0.20
2023-04-13T16:31:34.903Z,0.20
2023-04-13T16:34:25.572Z,0.20
2023-04-13T16:37:32.538Z,0.20
2023-04-13T16:40:01.974Z,0.20
2023-04-13T16:42:37.916Z,0.20
2023-04-13T16:45:14.381Z,0.20
2023-04-13T16:47:43.898Z,0.20
2023-04-13T16:50:14.288Z,0.20
2023-04-13T16:52:43.755Z,0.20
2023-04-13T16:55:15.703Z,0.20
2023-04-13T16:57:49.575Z,0.20
2023-04-13T17:00:18.444Z,0.20
2023-04-13T17:02:46.687Z,0.20
2023-04-13T17:05:15.785Z,0.20
2023-04-13T17:07:47.901Z,0.20
2023-04-13T17:10:18.527Z,0.20
2023-04-13T17:12:48.271Z,0.20
2023-04-13T17:15:16.293Z,0.20
2023-04-13T17:17:44.341Z,0.20
2023-04-13T17:20:17.038Z,0.30
2023-04-13T17:22:46.548Z,0.20
2023-04-13T17:25:15.506Z,0.20
2023-04-13T17:27:45.484Z,0.20
2023-04-13T17:30:13.882Z,0.20
2023-04-13T17:32:43.547Z,0.20
2023-04-13T17:35:12.883Z,0.20
2023-04-13T17:37:54.502Z,0.20
2023-04-13T17:40:23.601Z,0.20
2023-04-13T17:42:58.136Z,0.20
2023-04-13T17:45:29.685Z,0.20
2023-04-13T17:48:00.396Z,0.20
2023-04-13T17:50:29.390Z,0.23
2023-04-13T17:53:05.305Z,0.20
2023-04-13T17:55:39.915Z,0.20
2023-04-13T17:58:10.581Z,0.20
2023-04-13T18:00:38.706Z,0.20
2023-04-13T18:03:09.149Z,0.20
2023-04-13T18:05:47.250Z,0.20
2023-04-13T18:08:16.636Z,0.20
2023-04-13T18:10:44.750Z,0.20
2023-04-13T18:13:14.900Z,0.20
2023-04-13T18:15:47.399Z,0.20
2023-04-13T18:18:16.772Z,0.20
2023-04-13T18:20:45.533Z,0.20
2023-04-13T18:23:13.762Z,0.20
2023-04-13T18:25:48.456Z,0.20
2023-04-13T18:28:22.612Z,0.20
2023-04-13T18:30:50.744Z,0.20
2023-04-13T18:33:19.004Z,0.20
2023-04-13T18:35:52.096Z,0.20
2023-04-13T18:38:21.787Z,0.20
2023-04-13T18:40:53.447Z,0.30
2023-04-13T18:43:23.064Z,0.30
2023-04-13T18:45:52.326Z,0.30
2023-04-13T18:48:20.905Z,0.30
2023-04-13T18:50:49.672Z,0.20
2023-04-13T18:53:19.079Z,0.30
2023-04-13T18:55:49.871Z,0.30
2023-04-13T18:58:23.276Z,0.20
2023-04-13T19:00:51.179Z,0.30
2023-04-13T19:03:22.155Z,0.40
2023-04-13T19:05:51.972Z,0.30
2023-04-13T19:08:20.160Z,0.30
2023-04-13T19:10:49.229Z,0.30
2023-04-13T19:13:17.961Z,0.40
2023-04-13T19:15:54.696Z,0.43
2023-04-13T19:18:25.069Z,0.30
2023-04-13T19:21:21.438Z,0.37
2023-04-13T19:23:50.125Z,0.40
2023-04-13T19:26:18.522Z,0.37
2023-04-13T19:28:50.905Z,0.40
2023-04-13T19:31:22.543Z,0.33
2023-04-13T19:33:52.646Z,0.40
2023-04-13T19:36:20.686Z,0.40
2023-04-13T19:38:48.785Z,0.40
2023-04-13T19:41:17.863Z,0.40
2023-04-13T19:43:48.489Z,0.40
2023-04-13T19:46:16.806Z,0.40
2023-04-13T19:48:48.205Z,0.40
2023-04-13T19:51:16.253Z,0.40
2023-04-13T19:53:44.245Z,0.30
2023-04-13T19:56:15.263Z,0.40
2023-04-13T19:58:43.572Z,0.40
2023-04-13T20:01:13.782Z,0.40
2023-04-13T20:03:43.430Z,0.40
2023-04-13T20:06:13.356Z,0.33
2023-04-13T20:08:44.536Z,0.40
2023-04-13T20:11:13.136Z,0.40
2023-04-13T20:13:42.299Z,0.50
2023-04-13T20:16:12.581Z,0.30
2023-04-13T20:18:40.827Z,0.37
2023-04-13T20:21:12.221Z,0.40
2023-04-13T20:23:41.459Z,0.30
2023-04-13T20:26:09.997Z,0.40
2023-04-13T20:28:39.451Z,0.50
2023-04-13T20:31:08.416Z,0.30
2023-04-13T20:33:36.433Z,0.40
2023-04-13T20:36:04.758Z,0.40
2023-04-13T20:38:38.026Z,0.47
2023-04-13T20:41:06.731Z,0.37
2023-04-13T20:43:34.865Z,0.43
2023-04-13T20:46:03.228Z,0.40
2023-04-13T20:51:07.995Z,0.40
2023-04-13T20:53:38.327Z,0.40
2023-04-13T20:56:07.478Z,0.30
2023-04-13T20:58:38.509Z,0.40
2023-04-13T21:01:07.069Z,0.50
2023-04-13T21:03:38.702Z,0.40
2023-04-13T21:06:07.972Z,0.30
2023-04-13T21:08:42.141Z,0.40
2023-04-13T21:11:10.668Z,0.40
2023-04-13T21:13:40.172Z,0.40
2023-04-13T21:16:09.728Z,0.40
2023-04-13T21:18:38.713Z,0.40
2023-04-13T21:21:11.525Z,0.50
2023-04-13T21:23:46.182Z,0.50
2023-04-13T21:26:14.465Z,0.30
2023-04-13T21:28:43.983Z,0.40
2023-04-13T21:31:14.747Z,0.33
2023-04-13T21:33:44.152Z,0.50
2023-04-13T21:40:01.741Z,0.40
2023-04-13T21:42:41.327Z,0.60
2023-04-13T21:45:11.509Z,0.50
2023-04-13T21:47:39.871Z,0.40
2023-04-13T21:50:11.617Z,0.40
2023-04-13T21:52:40.775Z,0.40
2023-04-13T21:55:14.121Z,0.40
2023-04-13T21:57:47.343Z,0.30
2023-04-13T22:00:32.561Z,0.50
2023-04-13T22:03:08.826Z,0.40
2023-04-13T22:05:49.380Z,0.40
2023-04-13T22:08:19.534Z,0.50
2023-04-13T22:11:31.055Z,0.40
2023-04-13T22:14:02.408Z,0.40
2023-04-13T22:16:33.793Z,0.40
2023-04-13T22:19:01.961Z,0.30
2023-04-13T22:21:41.605Z,0.30
2023-04-13T22:24:11.806Z,0.30
2023-04-13T22:26:40.972Z,0.40
2023-04-13T22:29:10.447Z,0.40
2023-04-13T22:31:49.614Z,0.30
2023-04-13T22:34:19.637Z,0.50
2023-04-13T22:36:47.638Z,0.40
2023-04-13T22:39:15.692Z,0.40
2023-04-13T22:41:43.716Z,0.40
2023-04-13T22:44:13.368Z,0.30
2023-04-13T22:46:43.478Z,0.40
2023-04-13T22:49:11.425Z,0.40
2023-04-13T22:51:41.579Z,0.37
2023-04-13T22:54:09.900Z,0.40
2023-04-13T22:56:38.134Z,0.30
2023-04-13T22:59:07.684Z,0.40
2023-04-13T23:01:39.407Z,0.30
2023-04-13T23:04:07.595Z,0.40
2023-04-13T23:06:37.159Z,0.40
2023-04-13T23:09:05.248Z,0.40
2023-04-13T23:11:33.076Z,0.40
2023-04-13T23:14:01.704Z,0.40
2023-04-13T23:16:32.142Z,0.37
2023-04-13T23:19:01.691Z,0.40
2023-04-13T23:21:31.165Z,0.37
2023-04-13T23:23:59.293Z,0.30
2023-04-13T23:26:28.540Z,0.40
2023-04-13T23:28:57.707Z,0.50
2023-04-13T23:31:26.401Z,0.40
2023-04-13T23:33:55.689Z,0.40
2023-04-13T23:36:25.160Z,0.40
2023-04-13T23:38:54.229Z,0.50
2023-04-13T23:41:22.342Z,0.40
2023-04-13T23:43:51.554Z,0.30
2023-04-13T23:46:22.762Z,0.40
2023-04-13T23:48:51.980Z,0.40
2023-04-13T23:51:21.179Z,0.40
2023-04-13T23:53:50.674Z,0.40
2023-04-13T23:56:18.715Z,0.30
2023-04-13T23:58:46.839Z,0.30
